sensor_id;sensor_type;location;lat;lon;timestamp;pressure;altitude;pressure_sealevel;temperature;humidity
79625;BME280;69101;45.534;10.218;2023-04-24T00:01:35;98929.13;;;22.83;39.19
79625;BME280;69101;45.534;10.218;2023-04-24T00:04:02;98934.44;;;22.83;39.73
79625;BME280;69101;45.534;10.218;2023-04-24T00:06:29;98938.94;;;22.83;39.99
79625;BME280;69101;45.534;10.218;2023-04-24T00:08:59;98942.63;;;22.82;40.16
79625;BME280;69101;45.534;10.218;2023-04-24T00:11:25;98939.16;;;22.81;39.27
79625;BME280;69101;45.534;10.218;2023-04-24T00:13:51;98941.00;;;22.81;39.46
79625;BME280;69101;45.534;10.218;2023-04-24T00:16:16;98937.31;;;22.82;39.57
79625;BME280;69101;45.534;10.218;2023-04-24T00:18:45;98933.66;;;22.83;39.79
79625;BME280;69101;45.534;10.218;2023-04-24T00:21:11;98929.59;;;22.80;40.21
79625;BME280;69101;45.534;10.218;2023-04-24T00:23:36;98932.03;;;22.82;39.73
79625;BME280;69101;45.534;10.218;2023-04-24T00:26:02;98930.41;;;22.81;39.82
79625;BME280;69101;45.534;10.218;2023-04-24T00:28:27;98933.03;;;22.81;39.61
79625;BME280;69101;45.534;10.218;2023-04-24T00:30:53;98920.59;;;22.81;39.48
79625;BME280;69101;45.534;10.218;2023-04-24T00:33:19;98920.25;;;22.78;39.69
79625;BME280;69101;45.534;10.218;2023-04-24T00:35:44;98919.22;;;22.79;39.32
79625;BME280;69101;45.534;10.218;2023-04-24T00:38:09;98921.06;;;22.78;39.82
79625;BME280;69101;45.534;10.218;2023-04-24T00:40:35;98921.06;;;22.78;39.83
79625;BME280;69101;45.534;10.218;2023-04-24T00:43:00;98913.34;;;22.77;39.87
79625;BME280;69101;45.534;10.218;2023-04-24T00:45:25;98917.84;;;22.76;39.95
79625;BME280;69101;45.534;10.218;2023-04-24T00:47:52;98908.06;;;22.77;39.77
79625;BME280;69101;45.534;10.218;2023-04-24T00:50:18;98908.28;;;22.75;39.94
79625;BME280;69101;45.534;10.218;2023-04-24T00:52:44;98893.63;;;22.73;40.09
79625;BME280;69101;45.534;10.218;2023-04-24T00:55:10;98898.72;;;22.74;40.30
79625;BME280;69101;45.534;10.218;2023-04-24T00:57:36;98895.50;;;22.72;40.01
79625;BME280;69101;45.534;10.218;2023-04-24T01:00:02;98895.50;;;22.72;40.17
79625;BME280;69101;45.534;10.218;2023-04-24T01:02:28;98900.00;;;22.72;39.99
79625;BME280;69101;45.534;10.218;2023-04-24T01:04:54;98907.13;;;22.71;39.82
79625;BME280;69101;45.534;10.218;2023-04-24T01:07:20;98911.88;;;22.69;40.10
79625;BME280;69101;45.534;10.218;2023-04-24T01:09:47;98917.38;;;22.68;40.38
79625;BME280;69101;45.534;10.218;2023-04-24T01:12:15;98923.75;;;22.67;40.46
79625;BME280;69101;45.534;10.218;2023-04-24T01:14:40;98931.69;;;22.67;40.02
79625;BME280;69101;45.534;10.218;2023-04-24T01:17:05;98931.44;;;22.68;40.13
79625;BME280;69101;45.534;10.218;2023-04-24T01:19:31;98930.31;;;22.64;40.51
79625;BME280;69101;45.534;10.218;2023-04-24T01:21:58;98930.31;;;22.64;40.15
79625;BME280;69101;45.534;10.218;2023-04-24T01:24:26;98926.25;;;22.62;40.31
79625;BME280;69101;45.534;10.218;2023-04-24T01:26:52;98926.25;;;22.62;41.06
79625;BME280;69101;45.534;10.218;2023-04-24T01:29:18;98938.25;;;22.64;41.01
79625;BME280;69101;45.534;10.218;2023-04-24T01:31:43;98923.59;;;22.62;40.44
79625;BME280;69101;45.534;10.218;2023-04-24T01:34:09;98930.31;;;22.64;41.41
79625;BME280;69101;45.534;10.218;2023-04-24T01:36:35;98933.53;;;22.66;40.81
79625;BME280;69101;45.534;10.218;2023-04-24T01:39:01;98929.75;;;22.62;40.96
79625;BME280;69101;45.534;10.218;2023-04-24T01:41:27;98918.31;;;22.62;41.03
79625;BME280;69101;45.534;10.218;2023-04-24T01:43:53;98915.66;;;22.62;40.90
79625;BME280;69101;45.534;10.218;2023-04-24T01:46:19;98922.22;;;22.59;41.23
79625;BME280;69101;45.534;10.218;2023-04-24T01:48:45;98919.56;;;22.59;40.94
79625;BME280;69101;45.534;10.218;2023-04-24T01:51:10;98911.38;;;22.61;40.93
79625;BME280;69101;45.534;10.218;2023-04-24T01:53:36;98919.31;;;22.61;41.07
79625;BME280;69101;45.534;10.218;2023-04-24T01:56:01;98915.88;;;22.60;41.14
79625;BME280;69101;45.534;10.218;2023-04-24T01:58:27;98920.59;;;22.58;41.17
79625;BME280;69101;45.534;10.218;2023-04-24T02:00:56;98922.44;;;22.58;40.79
79625;BME280;69101;45.534;10.218;2023-04-24T02:03:21;98936.75;;;22.57;40.96
79625;BME280;69101;45.534;10.218;2023-04-24T02:05:47;98919.00;;;22.57;40.88
79625;BME280;69101;45.534;10.218;2023-04-24T02:08:12;98935.94;;;22.56;40.89
79625;BME280;69101;45.534;10.218;2023-04-24T02:10:37;98932.47;;;22.56;40.73
79625;BME280;69101;45.534;10.218;2023-04-24T02:13:03;98930.84;;;22.55;41.14
79625;BME280;69101;45.534;10.218;2023-04-24T02:15:29;98928.19;;;22.55;40.77
79625;BME280;69101;45.534;10.218;2023-04-24T02:17:55;98928.44;;;22.53;40.88
79625;BME280;69101;45.534;10.218;2023-04-24T02:20:20;98932.13;;;22.52;41.00
79625;BME280;69101;45.534;10.218;2023-04-24T02:22:46;98927.88;;;22.51;40.80
79625;BME280;69101;45.534;10.218;2023-04-24T02:25:11;98930.72;;;22.50;41.28
79625;BME280;69101;45.534;10.218;2023-04-24T02:27:36;98920.72;;;22.52;40.87
79625;BME280;69101;45.534;10.218;2023-04-24T02:30:02;98916.69;;;22.49;41.65
79625;BME280;69101;45.534;10.218;2023-04-24T02:32:28;98904.47;;;22.48;41.52
79625;BME280;69101;45.534;10.218;2023-04-24T02:34:53;98915.06;;;22.48;40.92
79625;BME280;69101;45.534;10.218;2023-04-24T02:37:19;98916.09;;;22.47;41.25
79625;BME280;69101;45.534;10.218;2023-04-24T02:39:44;98928.56;;;22.47;41.45
79625;BME280;69101;45.534;10.218;2023-04-24T02:42:09;98928.78;;;22.45;40.99
79625;BME280;69101;45.534;10.218;2023-04-24T02:44:35;98931.22;;;22.47;41.34
79625;BME280;69101;45.534;10.218;2023-04-24T02:47:00;98928.78;;;22.45;41.19
79625;BME280;69101;45.534;10.218;2023-04-24T02:49:26;98926.94;;;22.45;41.13
79625;BME280;69101;45.534;10.218;2023-04-24T02:51:52;98929.84;;;22.44;41.39
79625;BME280;69101;45.534;10.218;2023-04-24T02:54:17;98939.84;;;22.42;41.36
79625;BME280;69101;45.534;10.218;2023-04-24T02:56:42;98941.69;;;22.41;41.59
79625;BME280;69101;45.534;10.218;2023-04-24T02:59:08;98941.09;;;22.39;41.51
79625;BME280;69101;45.534;10.218;2023-04-24T03:01:33;98949.84;;;22.40;41.65
79625;BME280;69101;45.534;10.218;2023-04-24T03:03:59;98950.56;;;22.35;41.40
79625;BME280;69101;45.534;10.218;2023-04-24T03:06:24;98952.97;;;22.37;41.28
79625;BME280;69101;45.534;10.218;2023-04-24T03:08:49;98950.31;;;22.37;41.56
79625;BME280;69101;45.534;10.218;2023-04-24T03:11:15;98951.13;;;22.37;41.38
79625;BME280;69101;45.534;10.218;2023-04-24T03:13:40;98941.59;;;22.36;41.65
79625;BME280;69101;45.534;10.218;2023-04-24T03:16:05;98941.78;;;22.35;41.63
79625;BME280;69101;45.534;10.218;2023-04-24T03:18:31;98934.31;;;22.32;41.69
79625;BME280;69101;45.534;10.218;2023-04-24T03:20:56;98935.69;;;22.34;41.77
79625;BME280;69101;45.534;10.218;2023-04-24T03:23:22;98921.28;;;22.30;42.78
79625;BME280;69101;45.534;10.218;2023-04-24T03:25:47;98916.56;;;22.32;42.18
79625;BME280;69101;45.534;10.218;2023-04-24T03:28:13;98907.03;;;22.31;42.25
79625;BME280;69101;45.534;10.218;2023-04-24T03:30:39;98907.03;;;22.31;42.15
79625;BME280;69101;45.534;10.218;2023-04-24T03:33:04;98910.94;;;22.29;42.53
79625;BME280;69101;45.534;10.218;2023-04-24T03:35:29;98930.28;;;22.29;42.25
79625;BME280;69101;45.534;10.218;2023-04-24T03:37:55;98928.88;;;22.27;42.21
79625;BME280;69101;45.534;10.218;2023-04-24T03:40:20;98930.72;;;22.26;42.14
79625;BME280;69101;45.534;10.218;2023-04-24T03:42:46;98909.53;;;22.26;42.21
79625;BME280;69101;45.534;10.218;2023-04-24T03:45:11;98915.31;;;22.23;42.80
79625;BME280;69101;45.534;10.218;2023-04-24T03:47:36;98907.56;;;22.22;42.32
79625;BME280;69101;45.534;10.218;2023-04-24T03:50:02;98903.91;;;22.23;42.95
79625;BME280;69101;45.534;10.218;2023-04-24T03:52:27;98885.38;;;22.23;42.27
79625;BME280;69101;45.534;10.218;2023-04-24T03:54:53;98871.31;;;22.22;42.43
79625;BME280;69101;45.534;10.218;2023-04-24T03:57:18;98860.25;;;22.14;43.41
79625;BME280;69101;45.534;10.218;2023-04-24T03:59:44;98855.63;;;22.09;43.28
79625;BME280;69101;45.534;10.218;2023-04-24T04:02:09;98859.22;;;22.15;42.86
79625;BME280;69101;45.534;10.218;2023-04-24T04:04:35;98861.06;;;22.14;42.94
79625;BME280;69101;45.534;10.218;2023-04-24T04:07:00;98862.88;;;22.14;42.95
79625;BME280;69101;45.534;10.218;2023-04-24T04:09:30;98865.78;;;22.12;42.75
79625;BME280;69101;45.534;10.218;2023-04-24T04:11:56;98871.31;;;22.11;43.08
79625;BME280;69101;45.534;10.218;2023-04-24T04:14:22;98866.81;;;22.11;42.88
79625;BME280;69101;45.534;10.218;2023-04-24T04:16:47;98860.72;;;22.11;42.86
79625;BME280;69101;45.534;10.218;2023-04-24T04:19:12;98876.63;;;22.11;42.71
79625;BME280;69101;45.534;10.218;2023-04-24T04:21:38;98869.69;;;22.10;42.90
79625;BME280;69101;45.534;10.218;2023-04-24T04:24:03;98881.09;;;22.10;43.03
79625;BME280;69101;45.534;10.218;2023-04-24T04:26:30;98880.28;;;22.10;42.60
79625;BME280;69101;45.534;10.218;2023-04-24T04:28:58;98886.16;;;22.12;42.73
79625;BME280;69101;45.534;10.218;2023-04-24T04:31:23;98879.25;;;22.11;42.78
79625;BME280;69101;45.534;10.218;2023-04-24T04:33:50;98880.28;;;22.10;42.77
79625;BME280;69101;45.534;10.218;2023-04-24T04:36:15;98871.31;;;22.11;42.86
79625;BME280;69101;45.534;10.218;2023-04-24T04:38:42;98875.00;;;22.10;43.10
79625;BME280;69101;45.534;10.218;2023-04-24T04:41:08;98873.16;;;22.10;42.76
79625;BME280;69101;45.534;10.218;2023-04-24T04:43:33;98881.91;;;22.11;42.89
79625;BME280;69101;45.534;10.218;2023-04-24T04:45:59;98880.03;;;22.11;42.94
79625;BME280;69101;45.534;10.218;2023-04-24T04:48:26;98881.66;;;22.12;43.06
79625;BME280;69101;45.534;10.218;2023-04-24T04:50:52;98879.84;;;22.13;43.41
79625;BME280;69101;45.534;10.218;2023-04-24T04:53:17;98877.19;;;22.13;43.15
79625;BME280;69101;45.534;10.218;2023-04-24T04:55:43;98878.22;;;22.12;43.20
79625;BME280;69101;45.534;10.218;2023-04-24T04:58:08;98875.81;;;22.10;43.49
79625;BME280;69101;45.534;10.218;2023-04-24T05:00:34;98876.63;;;22.11;43.35
79625;BME280;69101;45.534;10.218;2023-04-24T05:03:02;98876.38;;;22.12;43.43
79625;BME280;69101;45.534;10.218;2023-04-24T05:05:28;98871.31;;;22.11;43.30
79625;BME280;69101;45.534;10.218;2023-04-24T05:07:53;98875.56;;;22.12;44.19
79625;BME280;69101;45.534;10.218;2023-04-24T05:10:19;98872.69;;;22.13;43.26
79625;BME280;69101;45.534;10.218;2023-04-24T05:12:44;98867.16;;;22.15;43.34
79625;BME280;69101;45.534;10.218;2023-04-24T05:15:10;98878.00;;;22.13;43.35
79625;BME280;69101;45.534;10.218;2023-04-24T05:17:36;98887.78;;;22.13;43.37
79625;BME280;69101;45.534;10.218;2023-04-24T05:20:02;98886.97;;;22.12;43.60
79625;BME280;69101;45.534;10.218;2023-04-24T05:22:30;98885.59;;;22.10;43.44
79625;BME280;69101;45.534;10.218;2023-04-24T05:24:56;98882.69;;;22.11;43.35
79625;BME280;69101;45.534;10.218;2023-04-24T05:27:21;98889.84;;;22.11;43.28
79625;BME280;69101;45.534;10.218;2023-04-24T05:29:47;98890.88;;;22.10;43.07
79625;BME280;69101;45.534;10.218;2023-04-24T05:32:12;98886.59;;;22.09;43.05
79625;BME280;69101;45.534;10.218;2023-04-24T05:34:37;98892.97;;;22.08;43.09
79625;BME280;69101;45.534;10.218;2023-04-24T05:37:03;98887.09;;;22.06;43.19
79625;BME280;69101;45.534;10.218;2023-04-24T05:39:33;98890.53;;;22.06;43.02
79625;BME280;69101;45.534;10.218;2023-04-24T05:41:58;98897.69;;;22.06;43.42
79625;BME280;69101;45.534;10.218;2023-04-24T05:44:24;98911.72;;;22.06;43.19
79625;BME280;69101;45.534;10.218;2023-04-24T05:46:49;98904.81;;;22.05;42.84
79625;BME280;69101;45.534;10.218;2023-04-24T05:49:14;98902.97;;;22.06;42.86
79625;BME280;69101;45.534;10.218;2023-04-24T05:51:40;98907.22;;;22.07;42.96
79625;BME280;69101;45.534;10.218;2023-04-24T05:54:06;98910.13;;;22.05;42.76
79625;BME280;69101;45.534;10.218;2023-04-24T05:56:31;98912.53;;;22.07;43.48
79625;BME280;69101;45.534;10.218;2023-04-24T05:58:57;98908.03;;;22.07;42.69
79625;BME280;69101;45.534;10.218;2023-04-24T06:01:22;98923.09;;;22.07;43.03
79625;BME280;69101;45.534;10.218;2023-04-24T06:03:48;98914.94;;;22.08;43.35
79625;BME280;69101;45.534;10.218;2023-04-24T06:06:13;98915.75;;;22.09;43.34
79625;BME280;69101;45.534;10.218;2023-04-24T06:08:39;98910.44;;;22.09;43.31
79625;BME280;69101;45.534;10.218;2023-04-24T06:11:04;98907.78;;;22.09;43.37
79625;BME280;69101;45.534;10.218;2023-04-24T06:13:30;98916.56;;;22.09;43.48
79625;BME280;69101;45.534;10.218;2023-04-24T06:15:55;98922.66;;;22.10;42.94
79625;BME280;69101;45.534;10.218;2023-04-24T06:18:21;98924.28;;;22.11;43.35
79625;BME280;69101;45.534;10.218;2023-04-24T06:20:46;98924.28;;;22.11;43.35
79625;BME280;69101;45.534;10.218;2023-04-24T06:23:12;98922.41;;;22.11;43.30
79625;BME280;69101;45.534;10.218;2023-04-24T06:25:37;98925.06;;;22.11;43.53
79625;BME280;69101;45.534;10.218;2023-04-24T06:28:03;98919.78;;;22.11;43.15
79625;BME280;69101;45.534;10.218;2023-04-24T06:30:28;98917.13;;;22.11;43.33
79625;BME280;69101;45.534;10.218;2023-04-24T06:32:54;98917.94;;;22.12;43.01
79625;BME280;69101;45.534;10.218;2023-04-24T06:35:20;98914.25;;;22.13;43.17
79625;BME280;69101;45.534;10.218;2023-04-24T06:37:45;98916.09;;;22.12;43.09
79625;BME280;69101;45.534;10.218;2023-04-24T06:40:11;98910.56;;;22.14;43.18
79625;BME280;69101;45.534;10.218;2023-04-24T06:42:37;98910.56;;;22.14;43.40
79625;BME280;69101;45.534;10.218;2023-04-24T06:45:02;98902.41;;;22.15;43.03
79625;BME280;69101;45.534;10.218;2023-04-24T06:47:28;98907.69;;;22.15;43.53
79625;BME280;69101;45.534;10.218;2023-04-24T06:49:53;98910.09;;;22.17;43.60
79625;BME280;69101;45.534;10.218;2023-04-24T06:52:20;98914.38;;;22.18;43.50
79625;BME280;69101;45.534;10.218;2023-04-24T06:54:45;98915.75;;;22.20;43.31
79625;BME280;69101;45.534;10.218;2023-04-24T06:57:11;98924.28;;;22.22;43.69
79625;BME280;69101;45.534;10.218;2023-04-24T06:59:37;98924.53;;;22.21;43.58
79625;BME280;69101;45.534;10.218;2023-04-24T07:02:02;98936.50;;;22.23;43.61
79625;BME280;69101;45.534;10.218;2023-04-24T07:04:28;98930.97;;;22.25;43.38
79625;BME280;69101;45.534;10.218;2023-04-24T07:06:54;98938.22;;;22.29;43.79
79625;BME280;69101;45.534;10.218;2023-04-24T07:09:21;98936.38;;;22.30;43.44
79625;BME280;69101;45.534;10.218;2023-04-24T07:11:47;98942.50;;;22.30;43.22
79625;BME280;69101;45.534;10.218;2023-04-24T07:14:13;98948.03;;;22.29;43.29
79625;BME280;69101;45.534;10.218;2023-04-24T07:16:38;98956.53;;;22.31;43.42
79625;BME280;69101;45.534;10.218;2023-04-24T07:19:04;98963.44;;;22.32;43.47
79625;BME280;69101;45.534;10.218;2023-04-24T07:21:29;98956.88;;;22.34;43.13
79625;BME280;69101;45.534;10.218;2023-04-24T07:23:57;98958.50;;;22.35;43.21
79625;BME280;69101;45.534;10.218;2023-04-24T07:26:22;98965.63;;;22.35;43.02
79625;BME280;69101;45.534;10.218;2023-04-24T07:28:48;98970.72;;;22.36;42.87
79625;BME280;69101;45.534;10.218;2023-04-24T07:31:13;98968.28;;;22.35;43.19
79625;BME280;69101;45.534;10.218;2023-04-24T07:33:38;98963.00;;;22.35;42.88
79625;BME280;69101;45.534;10.218;2023-04-24T07:36:04;98973.59;;;22.35;42.79
79625;BME280;69101;45.534;10.218;2023-04-24T07:38:30;98968.53;;;22.33;42.88
79625;BME280;69101;45.534;10.218;2023-04-24T07:40:56;98974.97;;;22.37;43.01
79625;BME280;69101;45.534;10.218;2023-04-24T07:43:21;98971.06;;;22.40;42.25
79625;BME280;69101;45.534;10.218;2023-04-24T07:45:49;98963.34;;;22.38;42.44
79625;BME280;69101;45.534;10.218;2023-04-24T07:48:14;98962.91;;;22.41;42.77
79625;BME280;69101;45.534;10.218;2023-04-24T07:50:41;98961.84;;;22.42;43.00
79625;BME280;69101;45.534;10.218;2023-04-24T07:53:07;98962.66;;;22.43;42.35
79625;BME280;69101;45.534;10.218;2023-04-24T07:55:32;98969.59;;;22.44;42.10
79625;BME280;69101;45.534;10.218;2023-04-24T07:57:58;98968.53;;;22.45;42.25
79625;BME280;69101;45.534;10.218;2023-04-24T08:00:23;98969.34;;;22.45;42.58
79625;BME280;69101;45.534;10.218;2023-04-24T08:02:48;98969.91;;;22.48;42.47
79625;BME280;69101;45.534;10.218;2023-04-24T08:05:14;98970.47;;;22.50;42.36
79625;BME280;69101;45.534;10.218;2023-04-24T08:07:39;98974.19;;;22.49;42.20
79625;BME280;69101;45.534;10.218;2023-04-24T08:10:05;98978.22;;;22.51;41.87
79625;BME280;69101;45.534;10.218;2023-04-24T08:12:31;98968.44;;;22.52;42.31
79625;BME280;69101;45.534;10.218;2023-04-24T08:14:56;98981.44;;;22.53;42.53
79625;BME280;69101;45.534;10.218;2023-04-24T08:17:22;98976.13;;;22.53;42.57
79625;BME280;69101;45.534;10.218;2023-04-24T08:19:47;98971.09;;;22.52;42.13
79625;BME280;69101;45.534;10.218;2023-04-24T08:22:14;98965.41;;;22.48;41.75
79625;BME280;69101;45.534;10.218;2023-04-24T08:24:40;98969.44;;;22.51;41.86
79625;BME280;69101;45.534;10.218;2023-04-24T08:27:05;98974.50;;;22.52;42.10
79625;BME280;69101;45.534;10.218;2023-04-24T08:29:31;98975.78;;;22.50;42.46
79625;BME280;69101;45.534;10.218;2023-04-24T08:31:56;98971.28;;;22.50;41.91
79625;BME280;69101;45.534;10.218;2023-04-24T08:34:22;98970.97;;;22.47;42.50
79625;BME280;69101;45.534;10.218;2023-04-24T08:36:48;98972.91;;;22.51;42.39
79625;BME280;69101;45.534;10.218;2023-04-24T08:39:13;98971.53;;;22.49;42.10
79625;BME280;69101;45.534;10.218;2023-04-24T08:41:41;98975.00;;;22.49;43.01
79625;BME280;69101;45.534;10.218;2023-04-24T08:44:09;98976.78;;;22.14;43.40
79625;BME280;69101;45.534;10.218;2023-04-24T08:46:35;98980.59;;;22.29;43.44
79625;BME280;69101;45.534;10.218;2023-04-24T08:49:01;98969.66;;;22.37;43.29
79625;BME280;69101;45.534;10.218;2023-04-24T08:51:27;98965.31;;;22.43;43.31
79625;BME280;69101;45.534;10.218;2023-04-24T08:53:54;98975.22;;;22.48;43.30
79625;BME280;69101;45.534;10.218;2023-04-24T08:56:21;98968.06;;;22.48;43.13
79625;BME280;69101;45.534;10.218;2023-04-24T08:58:50;98964.41;;;22.49;43.13
79625;BME280;69101;45.534;10.218;2023-04-24T09:01:17;98972.09;;;22.51;43.30
79625;BME280;69101;45.534;10.218;2023-04-24T09:03:43;98970.28;;;22.51;43.03
79625;BME280;69101;45.534;10.218;2023-04-24T09:06:11;98970.03;;;22.53;42.88
79625;BME280;69101;45.534;10.218;2023-04-24T09:08:37;98973.50;;;22.53;43.50
79625;BME280;69101;45.534;10.218;2023-04-24T09:11:03;98970.03;;;22.53;42.88
79625;BME280;69101;45.534;10.218;2023-04-24T09:13:30;98961.25;;;22.52;43.06
79625;BME280;69101;45.534;10.218;2023-04-24T09:15:57;98972.47;;;22.54;42.86
79625;BME280;69101;45.534;10.218;2023-04-24T09:18:22;98970.59;;;22.55;42.88
79625;BME280;69101;45.534;10.218;2023-04-24T09:21:17;98976.50;;;22.57;42.79
79625;BME280;69101;45.534;10.218;2023-04-24T09:23:45;98967.72;;;22.56;42.77
79625;BME280;69101;45.534;10.218;2023-04-24T09:26:10;98973.03;;;22.56;42.95
79625;BME280;69101;45.534;10.218;2023-04-24T09:28:40;98970.38;;;22.56;42.81
79625;BME280;69101;45.534;10.218;2023-04-24T09:31:09;98973.03;;;22.56;43.27
79625;BME280;69101;45.534;10.218;2023-04-24T09:33:35;98970.59;;;22.55;43.11
79625;BME280;69101;45.534;10.218;2023-04-24T09:36:02;98976.50;;;22.57;42.89
79625;BME280;69101;45.534;10.218;2023-04-24T09:38:32;98971.19;;;22.57;43.20
79625;BME280;69101;45.534;10.218;2023-04-24T09:41:05;98960.81;;;22.55;42.82
79625;BME280;69101;45.534;10.218;2023-04-24T09:43:31;98964.28;;;22.56;43.01
79625;BME280;69101;45.534;10.218;2023-04-24T09:45:58;98965.66;;;22.58;43.41
79625;BME280;69101;45.534;10.218;2023-04-24T09:48:34;98958.50;;;22.59;43.46
79625;BME280;69101;45.534;10.218;2023-04-24T09:51:02;98963.00;;;22.58;43.41
79625;BME280;69101;45.534;10.218;2023-04-24T09:53:29;98965.09;;;22.56;42.90
79625;BME280;69101;45.534;10.218;2023-04-24T09:55:55;98954.94;;;22.53;43.17
79625;BME280;69101;45.534;10.218;2023-04-24T09:58:26;98962.19;;;22.58;43.22
79625;BME280;69101;45.534;10.218;2023-04-24T10:00:55;98956.56;;;22.54;42.77
79625;BME280;69101;45.534;10.218;2023-04-24T10:03:24;98961.41;;;22.57;43.57
79625;BME280;69101;45.534;10.218;2023-04-24T10:05:51;98966.72;;;22.57;43.55
79625;BME280;69101;45.534;10.218;2023-04-24T10:08:17;98961.41;;;22.57;43.07
79625;BME280;69101;45.534;10.218;2023-04-24T10:10:44;98964.84;;;22.58;43.60
79625;BME280;69101;45.534;10.218;2023-04-24T10:13:11;98970.94;;;22.58;43.28
79625;BME280;69101;45.534;10.218;2023-04-24T10:15:37;98961.41;;;22.57;43.15
79625;BME280;69101;45.534;10.218;2023-04-24T10:18:04;98962.19;;;22.58;43.38
79625;BME280;69101;45.534;10.218;2023-04-24T10:20:32;98969.13;;;22.59;43.34
79625;BME280;69101;45.534;10.218;2023-04-24T10:22:58;98969.13;;;22.59;43.16
79625;BME280;69101;45.534;10.218;2023-04-24T10:25:30;98970.94;;;22.58;43.17
79625;BME280;69101;45.534;10.218;2023-04-24T10:27:57;98973.03;;;22.56;43.16
79625;BME280;69101;45.534;10.218;2023-04-24T10:30:25;98969.13;;;22.59;43.56
79625;BME280;69101;45.534;10.218;2023-04-24T10:32:51;98958.16;;;22.55;43.43
79625;BME280;69101;45.534;10.218;2023-04-24T10:35:17;98977.47;;;22.62;43.38
79625;BME280;69101;45.534;10.218;2023-04-24T10:37:48;98972.34;;;22.61;43.29
79625;BME280;69101;45.534;10.218;2023-04-24T10:40:34;98963.47;;;22.55;43.26
79625;BME280;69101;45.534;10.218;2023-04-24T10:43:02;98976.03;;;22.60;43.19
79625;BME280;69101;45.534;10.218;2023-04-24T10:45:27;98976.03;;;22.60;43.26
79625;BME280;69101;45.534;10.218;2023-04-24T10:48:19;98976.03;;;22.60;42.84
79625;BME280;69101;45.534;10.218;2023-04-24T10:50:52;98979.72;;;22.59;42.88
79625;BME280;69101;45.534;10.218;2023-04-24T10:53:23;98980.53;;;22.59;42.83
79625;BME280;69101;45.534;10.218;2023-04-24T10:58:14;98973.84;;;22.57;42.96
79625;BME280;69101;45.534;10.218;2023-04-24T11:00:42;98976.81;;;22.60;42.92
79625;BME280;69101;45.534;10.218;2023-04-24T11:03:24;98978.91;;;22.58;42.82
79625;BME280;69101;45.534;10.218;2023-04-24T11:06:00;98973.38;;;22.60;42.74
79625;BME280;69101;45.534;10.218;2023-04-24T11:10:57;98977.88;;;22.59;42.73
79625;BME280;69101;45.534;10.218;2023-04-24T11:13:24;98986.66;;;22.60;42.94
79625;BME280;69101;45.534;10.218;2023-04-24T11:19:09;98987.66;;;22.59;42.61
79625;BME280;69101;45.534;10.218;2023-04-24T11:22:06;98974.19;;;22.60;42.90
79625;BME280;69101;45.534;10.218;2023-04-24T11:24:48;98972.00;;;22.57;42.64
79625;BME280;69101;45.534;10.218;2023-04-24T11:27:16;98971.53;;;22.60;42.75
79625;BME280;69101;45.534;10.218;2023-04-24T11:29:46;98968.88;;;22.60;42.79
79625;BME280;69101;45.534;10.218;2023-04-24T11:32:28;98969.94;;;22.59;42.73
79625;BME280;69101;45.534;10.218;2023-04-24T11:37:23;98966.22;;;22.60;42.47
79625;BME280;69101;45.534;10.218;2023-04-24T11:39:56;98967.84;;;22.61;42.56
79625;BME280;69101;45.534;10.218;2023-04-24T11:42:22;98958.28;;;22.60;42.59
79625;BME280;69101;45.534;10.218;2023-04-24T11:44:49;98957.03;;;22.63;42.42
79625;BME280;69101;45.534;10.218;2023-04-24T11:47:15;98958.91;;;22.62;42.34
79625;BME280;69101;45.534;10.218;2023-04-24T11:49:41;98956.00;;;22.64;42.47
79625;BME280;69101;45.534;10.218;2023-04-24T11:52:06;98952.53;;;22.63;42.29
79625;BME280;69101;45.534;10.218;2023-04-24T11:54:32;98951.94;;;22.61;42.46
79625;BME280;69101;45.534;10.218;2023-04-24T11:56:58;98950.72;;;22.64;42.40
79625;BME280;69101;45.534;10.218;2023-04-24T11:59:23;98948.88;;;22.64;42.38
79625;BME280;69101;45.534;10.218;2023-04-24T12:01:49;98947.81;;;22.65;42.50
79625;BME280;69101;45.534;10.218;2023-04-24T12:04:16;98945.75;;;22.67;42.52
79625;BME280;69101;45.534;10.218;2023-04-24T12:07:03;98945.75;;;22.67;42.33
79625;BME280;69101;45.534;10.218;2023-04-24T12:09:47;98932.72;;;22.66;42.27
79625;BME280;69101;45.534;10.218;2023-04-24T12:12:13;98925.81;;;22.65;42.32
79625;BME280;69101;45.534;10.218;2023-04-24T12:14:49;98929.03;;;22.67;42.10
79625;BME280;69101;45.534;10.218;2023-04-24T12:17:15;98928.22;;;22.66;42.18
79625;BME280;69101;45.534;10.218;2023-04-24T12:19:48;98933.53;;;22.66;42.44
79625;BME280;69101;45.534;10.218;2023-04-24T12:22:13;98931.13;;;22.65;42.04
79625;BME280;69101;45.534;10.218;2023-04-24T12:27:29;98917.38;;;22.68;42.15
79625;BME280;69101;45.534;10.218;2023-04-24T12:29:59;98913.94;;;22.67;42.15
79625;BME280;69101;45.534;10.218;2023-04-24T12:32:25;98910.50;;;22.67;42.25
79625;BME280;69101;45.534;10.218;2023-04-24T12:34:51;98906.56;;;22.69;42.08
79625;BME280;69101;45.534;10.218;2023-04-24T12:37:17;98903.34;;;22.67;41.92
79625;BME280;69101;45.534;10.218;2023-04-24T12:40:02;98895.97;;;22.69;42.02
79625;BME280;69101;45.534;10.218;2023-04-24T12:42:30;98886.63;;;22.67;42.15
79625;BME280;69101;45.534;10.218;2023-04-24T12:45:00;98885.38;;;22.69;42.08
79625;BME280;69101;45.534;10.218;2023-04-24T12:47:27;98896.78;;;22.70;41.82
79625;BME280;69101;45.534;10.218;2023-04-24T12:49:52;98894.13;;;22.70;42.04
79625;BME280;69101;45.534;10.218;2023-04-24T12:52:19;98881.09;;;22.68;41.98
79625;BME280;69101;45.534;10.218;2023-04-24T12:54:47;98886.97;;;22.70;42.18
79625;BME280;69101;45.534;10.218;2023-04-24T12:57:12;98888.59;;;22.71;42.05
79625;BME280;69101;45.534;10.218;2023-04-24T12:59:38;98881.34;;;22.67;41.92
79625;BME280;69101;45.534;10.218;2023-04-24T13:02:04;98876.34;;;22.70;42.03